createdAt,value
2023-02-25T00:00:25.714Z,18.02
2023-02-25T00:02:55.507Z,16.55
2023-02-25T00:05:25.778Z,16.67
2023-02-25T00:07:56.577Z,20.05
2023-02-25T00:10:26.002Z,22.33
2023-02-25T00:13:00.729Z,18.25
2023-02-25T00:15:35.727Z,18.42
2023-02-25T00:18:05.568Z,16.62
2023-02-25T00:20:36.905Z,18.05
2023-02-25T00:23:06.357Z,18.00
2023-02-25T00:25:36.193Z,19.30
2023-02-25T00:28:07.266Z,18.02
2023-02-25T00:30:39.363Z,22.67
2023-02-25T00:33:08.683Z,13.50
2023-02-25T00:35:42.315Z,17.30
2023-02-25T00:38:16.067Z,19.42
2023-02-25T00:40:48.665Z,15.23
2023-02-25T00:43:18.132Z,19.45
2023-02-25T00:45:48.203Z,14.23
2023-02-25T00:48:17.511Z,17.98
2023-02-25T00:50:46.945Z,14.52
2023-02-25T00:53:19.040Z,17.15
2023-02-25T00:55:48.344Z,20.92
2023-02-25T00:58:18.178Z,10.43
2023-02-25T01:00:52.094Z,13.70
2023-02-25T01:03:22.721Z,20.62
2023-02-25T01:05:52.478Z,18.70
2023-02-25T01:08:22.572Z,15.75
2023-02-25T01:10:51.932Z,18.35
2023-02-25T01:13:22.249Z,21.42
2023-02-25T01:15:52.073Z,16.80
2023-02-25T01:18:21.664Z,17.15
2023-02-25T01:20:51.031Z,14.65
2023-02-25T01:23:22.554Z,15.63
2023-02-25T01:25:52.198Z,16.05
2023-02-25T01:28:22.989Z,16.02
2023-02-25T01:30:53.690Z,16.77
2023-02-25T01:33:23.092Z,17.75
2023-02-25T01:35:53.169Z,15.50
2023-02-25T01:38:22.731Z,17.02
2023-02-25T01:40:59.944Z,20.58
2023-02-25T01:43:29.873Z,13.85
2023-02-25T01:46:00.162Z,15.13
2023-02-25T01:48:34.483Z,17.50
2023-02-25T01:51:10.769Z,16.50
2023-02-25T01:53:46.432Z,16.25
2023-02-25T01:56:21.679Z,17.55
2023-02-25T01:58:51.298Z,15.60
2023-02-25T02:01:25.193Z,18.00
2023-02-25T02:03:55.879Z,16.42
2023-02-25T02:06:31.105Z,15.82
2023-02-25T02:09:02.686Z,21.33
2023-02-25T02:11:32.168Z,14.02
2023-02-25T02:14:05.664Z,18.40
2023-02-25T02:16:56.391Z,19.57
2023-02-25T02:19:33.830Z,20.80
2023-02-25T02:22:32.319Z,17.67
2023-02-25T02:25:41.361Z,20.85
2023-02-25T02:28:40.913Z,16.77
2023-02-25T02:31:26.417Z,15.20
2023-02-25T02:34:09.843Z,16.00
2023-02-25T02:37:18.625Z,16.23
2023-02-25T02:39:56.441Z,14.60
2023-02-25T02:42:40.367Z,13.45
2023-02-25T02:45:35.488Z,14.20
2023-02-25T02:48:14.027Z,16.12
2023-02-25T02:50:49.222Z,13.23
2023-02-25T02:53:32.960Z,14.82
2023-02-25T02:56:05.457Z,15.65
2023-02-25T02:58:39.532Z,15.25
2023-02-25T03:01:33.627Z,17.45
2023-02-25T03:04:09.103Z,14.60
2023-02-25T03:06:43.765Z,15.60
2023-02-25T03:09:20.377Z,12.77
2023-02-25T03:11:53.622Z,18.92
2023-02-25T03:17:02.331Z,18.52
2023-02-25T03:19:43.603Z,17.02
2023-02-25T03:22:16.786Z,12.73
2023-02-25T03:25:09.990Z,13.77
2023-02-25T03:27:43.491Z,14.43
2023-02-25T03:30:26.247Z,16.17
2023-02-25T03:33:05.317Z,11.68
2023-02-25T03:35:38.634Z,16.87
2023-02-25T03:38:15.597Z,15.00
2023-02-25T03:40:49.695Z,17.15
2023-02-25T03:43:26.898Z,13.25
2023-02-25T03:45:59.342Z,16.12
2023-02-25T03:48:31.381Z,15.07
2023-02-25T03:51:05.139Z,15.68
2023-02-25T03:53:36.628Z,14.52
2023-02-25T03:56:11.091Z,14.85
2023-02-25T03:58:42.801Z,14.77
2023-02-25T04:01:20.359Z,15.32
2023-02-25T04:03:50.285Z,14.45
2023-02-25T04:06:23.932Z,15.07
2023-02-25T04:08:54.301Z,16.42
2023-02-25T04:11:24.606Z,15.27
2023-02-25T04:16:27.500Z,15.43
2023-02-25T04:19:00.152Z,15.63
2023-02-25T04:21:36.624Z,11.43
2023-02-25T04:24:07.893Z,11.68
2023-02-25T04:26:38.293Z,11.93
2023-02-25T04:29:07.938Z,13.27
2023-02-25T04:31:37.533Z,15.30
2023-02-25T04:34:07.051Z,9.27
2023-02-25T04:36:40.563Z,12.77
2023-02-25T04:41:42.865Z,10.13
2023-02-25T04:44:13.760Z,11.70
2023-02-25T04:46:45.642Z,13.45
2023-02-25T04:49:15.299Z,13.88
2023-02-25T04:51:45.312Z,9.38
2023-02-25T04:54:14.832Z,8.98
2023-02-25T04:56:44.173Z,9.20
2023-02-25T04:59:17.095Z,11.15
2023-02-25T05:01:47.722Z,9.35
2023-02-25T05:04:17.616Z,9.02
2023-02-25T05:06:46.882Z,11.80
2023-02-25T05:09:16.412Z,9.65
2023-02-25T05:11:46.760Z,8.10
2023-02-25T05:14:16.368Z,7.50
2023-02-25T05:16:46.511Z,12.77
2023-02-25T05:19:18.779Z,4.28
2023-02-25T05:24:18.356Z,5.97
2023-02-25T05:26:47.813Z,10.60
2023-02-25T05:29:18.160Z,9.85
2023-02-25T05:31:50.327Z,6.22
2023-02-25T05:34:20.036Z,10.90
2023-02-25T05:36:53.318Z,11.70
2023-02-25T05:39:23.765Z,8.63
2023-02-25T05:41:53.001Z,13.52
2023-02-25T05:44:22.973Z,11.45
2023-02-25T05:46:52.182Z,8.90
2023-02-25T05:49:22.320Z,8.20
2023-02-25T05:51:53.141Z,10.90
2023-02-25T05:54:23.328Z,13.50
2023-02-25T05:56:56.719Z,11.23
2023-02-25T05:59:29.477Z,10.70
2023-02-25T06:02:08.005Z,7.05
2023-02-25T06:04:38.723Z,11.18
2023-02-25T06:07:08.350Z,10.95
2023-02-25T06:09:39.727Z,8.75
2023-02-25T06:12:09.750Z,9.98
2023-02-25T06:14:39.510Z,6.60
2023-02-25T06:17:10.222Z,8.55
2023-02-25T06:19:41.061Z,10.98
2023-02-25T06:22:10.736Z,10.25
2023-02-25T06:24:42.016Z,6.25
2023-02-25T06:27:11.856Z,10.38
2023-02-25T06:29:49.544Z,12.25
2023-02-25T06:32:20.581Z,12.40
2023-02-25T06:34:50.703Z,10.13
2023-02-25T06:37:20.207Z,10.43
2023-02-25T06:39:50.829Z,7.90
2023-02-25T06:42:20.840Z,9.65
2023-02-25T06:44:50.058Z,9.18
2023-02-25T06:47:19.735Z,5.75
2023-02-25T06:49:52.326Z,9.70
2023-02-25T06:52:22.575Z,8.82
2023-02-25T06:54:55.835Z,9.25
2023-02-25T06:57:25.619Z,8.40
2023-02-25T06:59:56.710Z,7.47
2023-02-25T07:02:26.420Z,8.25
2023-02-25T07:04:58.322Z,9.88
2023-02-25T07:07:28.178Z,8.43
2023-02-25T07:09:58.972Z,8.63
2023-02-25T07:12:29.845Z,8.63
2023-02-25T07:15:01.075Z,7.53
2023-02-25T07:17:31.991Z,8.02
2023-02-25T07:20:02.119Z,8.43
2023-02-25T07:22:34.885Z,10.35
2023-02-25T07:25:07.351Z,7.03
2023-02-25T07:27:36.652Z,9.47
2023-02-25T07:30:07.049Z,9.77
2023-02-25T07:32:36.746Z,6.90
2023-02-25T07:35:07.855Z,8.52
2023-02-25T07:37:38.317Z,4.65
2023-02-25T07:40:18.068Z,6.80
2023-02-25T07:42:48.627Z,6.43
2023-02-25T07:45:18.638Z,6.25
2023-02-25T07:47:48.048Z,8.18
2023-02-25T07:50:19.208Z,6.57
2023-02-25T07:52:49.183Z,8.18
2023-02-25T07:55:19.495Z,9.55
2023-02-25T07:57:49.010Z,6.15
2023-02-25T08:00:19.169Z,6.20
2023-02-25T08:02:54.746Z,6.80
2023-02-25T08:05:27.082Z,9.52
2023-02-25T08:08:00.348Z,6.90
2023-02-25T08:10:29.696Z,4.50
2023-02-25T08:12:59.446Z,3.45
2023-02-25T08:15:29.391Z,6.95
2023-02-25T08:17:59.785Z,7.15
2023-02-25T08:20:30.063Z,5.95
2023-02-25T08:22:59.952Z,8.75
2023-02-25T08:25:30.147Z,3.75
2023-02-25T08:28:00.285Z,9.50
2023-02-25T08:30:30.826Z,1.85
2023-02-25T08:33:03.402Z,4.53
2023-02-25T08:35:36.442Z,6.50
2023-02-25T08:38:06.324Z,3.92
2023-02-25T08:40:36.462Z,6.28
2023-02-25T08:43:05.924Z,3.95
2023-02-25T08:45:37.654Z,7.47
2023-02-25T08:48:07.432Z,3.33
2023-02-25T08:50:37.519Z,3.03
2023-02-25T08:53:09.562Z,3.10
2023-02-25T08:55:40.824Z,4.28
2023-02-25T08:58:12.432Z,8.80
2023-02-25T09:00:46.017Z,4.70
2023-02-25T09:03:15.425Z,5.22
2023-02-25T09:05:51.641Z,3.12
2023-02-25T09:08:21.105Z,3.35
2023-02-25T09:10:51.381Z,5.18
2023-02-25T09:13:21.545Z,4.68
2023-02-25T09:16:00.702Z,6.50
2023-02-25T09:18:31.897Z,3.08
2023-02-25T09:21:02.391Z,3.78
2023-02-25T09:23:32.729Z,3.85
2023-02-25T09:26:05.548Z,3.03
2023-02-25T09:28:35.688Z,2.78
2023-02-25T09:31:08.120Z,4.80
2023-02-25T09:33:39.391Z,6.10
2023-02-25T09:36:13.791Z,3.67
2023-02-25T09:38:44.991Z,6.60
2023-02-25T09:41:42.952Z,4.70
2023-02-25T09:44:18.033Z,5.12
2023-02-25T09:46:54.386Z,3.65
2023-02-25T09:49:34.917Z,5.43
2023-02-25T09:52:19.961Z,5.15
2023-02-25T09:54:58.341Z,6.43
2023-02-25T09:57:30.413Z,4.05
2023-02-25T10:00:01.102Z,4.43
2023-02-25T10:05:40.170Z,3.37
2023-02-25T10:08:27.440Z,5.47
2023-02-25T10:11:11.191Z,4.40
2023-02-25T10:13:57.775Z,4.32
2023-02-25T10:16:39.196Z,4.93
2023-02-25T10:19:12.002Z,5.20
2023-02-25T10:21:52.900Z,4.28
2023-02-25T10:24:30.282Z,4.60
2023-02-25T10:27:16.184Z,6.03
2023-02-25T10:29:50.429Z,4.37
2023-02-25T10:32:26.533Z,4.05
2023-02-25T10:35:00.671Z,3.87
2023-02-25T10:37:40.765Z,5.12
2023-02-25T10:40:18.186Z,4.78
2023-02-25T10:42:50.777Z,5.95
2023-02-25T10:45:25.953Z,4.32
2023-02-25T10:48:15.709Z,3.97
2023-02-25T10:51:01.817Z,3.97
2023-02-25T10:53:33.770Z,4.43
2023-02-25T10:56:04.378Z,3.35
2023-02-25T10:58:47.473Z,4.80
2023-02-25T11:01:22.855Z,5.43
2023-02-25T11:04:03.532Z,4.18
2023-02-25T11:06:36.692Z,4.75
2023-02-25T11:09:28.973Z,3.58
2023-02-25T11:12:02.216Z,3.80
2023-02-25T11:14:34.517Z,4.57
2023-02-25T11:17:16.013Z,4.75
2023-02-25T11:19:50.633Z,3.42
2023-02-25T11:22:28.157Z,3.40
2023-02-25T11:25:02.020Z,3.50
2023-02-25T11:27:39.513Z,5.03
2023-02-25T11:30:26.474Z,2.30
2023-02-25T11:32:58.639Z,3.83
2023-02-25T11:35:32.468Z,2.95
2023-02-25T11:38:16.871Z,3.60
2023-02-25T11:40:46.889Z,3.28
2023-02-25T11:43:20.195Z,4.10
2023-02-25T11:45:59.360Z,3.58
2023-02-25T11:48:41.518Z,5.47
2023-02-25T11:51:31.006Z,3.78
2023-02-25T11:54:29.937Z,8.10
2023-02-25T11:57:18.745Z,4.00
2023-02-25T12:00:20.136Z,2.92
2023-02-25T12:03:24.283Z,4.72
2023-02-25T12:06:13.758Z,3.05
2023-02-25T12:09:10.691Z,3.90
2023-02-25T12:12:11.248Z,3.45
2023-02-25T12:15:20.460Z,3.03
2023-02-25T12:18:20.453Z,3.25
2023-02-25T12:21:11.024Z,1.40
2023-02-25T12:24:16.359Z,2.95
2023-02-25T12:27:06.957Z,5.12
2023-02-25T12:30:09.244Z,3.55
2023-02-25T12:33:18.016Z,3.45
2023-02-25T12:36:00.998Z,3.58
2023-02-25T12:41:32.653Z,3.85
2023-02-25T12:44:25.625Z,2.55
2023-02-25T12:47:03.784Z,2.80
2023-02-25T12:49:55.566Z,4.03
2023-02-25T12:52:36.190Z,3.97
2023-02-25T12:55:26.658Z,4.05
2023-02-25T12:58:20.776Z,3.17
2023-02-25T13:01:04.582Z,3.97
2023-02-25T13:04:13.208Z,4.00
2023-02-25T13:07:23.560Z,3.30
2023-02-25T13:10:04.819Z,4.45
2023-02-25T13:12:50.233Z,3.00
2023-02-25T13:15:34.564Z,1.95
2023-02-25T13:18:28.722Z,4.55
2023-02-25T13:21:07.801Z,5.03
2023-02-25T13:23:50.550Z,4.43
2023-02-25T13:26:46.757Z,3.45
2023-02-25T13:29:35.762Z,4.20
2023-02-25T13:32:33.857Z,4.20
2023-02-25T13:35:35.300Z,3.42
2023-02-25T13:38:25.139Z,2.37
2023-02-25T13:41:01.776Z,3.33
2023-02-25T13:43:59.967Z,3.95
2023-02-25T13:46:35.814Z,4.28
2023-02-25T13:49:19.341Z,0.73
2023-02-25T13:52:22.029Z,3.08
2023-02-25T13:54:59.852Z,4.93
2023-02-25T13:58:03.237Z,3.22
2023-02-25T14:01:11.745Z,6.70
2023-02-25T14:04:21.309Z,4.28
2023-02-25T14:07:13.872Z,2.53
2023-02-25T14:09:57.334Z,3.15
2023-02-25T14:13:18.442Z,3.45
2023-02-25T14:16:10.548Z,3.17
2023-02-25T14:18:56.968Z,3.60
2023-02-25T14:21:51.968Z,3.70
2023-02-25T14:24:34.214Z,4.95
2023-02-25T14:27:25.875Z,4.78
2023-02-25T14:30:16.468Z,5.32
2023-02-25T14:33:13.455Z,5.97
2023-02-25T14:35:57.363Z,4.87
2023-02-25T14:38:56.309Z,6.37
2023-02-25T14:42:16.858Z,5.72
2023-02-25T14:44:58.796Z,7.15
2023-02-25T14:47:47.613Z,6.55
2023-02-25T14:50:34.210Z,3.78
2023-02-25T14:53:42.912Z,4.30
2023-02-25T14:56:47.087Z,6.00
2023-02-25T15:02:38.551Z,8.48
2023-02-25T15:05:34.824Z,6.87
2023-02-25T15:08:19.765Z,7.43
2023-02-25T15:11:05.561Z,6.97
2023-02-25T15:14:12.169Z,6.65
2023-02-25T15:17:01.022Z,9.20
2023-02-25T15:20:06.898Z,4.72
2023-02-25T15:22:38.568Z,6.03
2023-02-25T15:25:36.491Z,11.80
2023-02-25T15:28:35.264Z,10.77
2023-02-25T15:31:31.647Z,10.93
2023-02-25T15:34:34.248Z,9.63
2023-02-25T15:37:28.823Z,8.73
2023-02-25T15:40:04.281Z,8.68
2023-02-25T15:42:53.906Z,10.30
2023-02-25T15:45:39.342Z,6.68
2023-02-25T15:48:31.593Z,8.15
2023-02-25T15:51:02.726Z,7.68
2023-02-25T15:53:45.804Z,8.35
2023-02-25T15:56:32.224Z,5.75
2023-02-25T15:59:06.351Z,9.90
2023-02-25T16:01:43.300Z,10.55
2023-02-25T16:04:51.085Z,4.72
2023-02-25T16:07:25.286Z,8.02
2023-02-25T16:10:02.997Z,7.30
2023-02-25T16:12:34.229Z,10.95
2023-02-25T16:15:08.204Z,8.77
2023-02-25T16:17:39.465Z,3.53
2023-02-25T16:20:25.022Z,7.20
2023-02-25T16:23:00.408Z,11.98
2023-02-25T16:25:43.319Z,10.57
2023-02-25T16:28:46.248Z,7.80
2023-02-25T16:31:34.405Z,11.12
2023-02-25T16:34:12.658Z,12.93
2023-02-25T16:37:02.545Z,7.07
2023-02-25T16:39:41.838Z,10.48
2023-02-25T16:42:15.633Z,9.75
2023-02-25T16:44:57.131Z,9.40
2023-02-25T16:47:32.205Z,6.90
2023-02-25T16:50:08.540Z,7.25
2023-02-25T16:52:46.923Z,14.07
2023-02-25T16:55:25.051Z,14.20
2023-02-25T16:58:25.320Z,12.75
2023-02-25T17:01:02.074Z,11.15
2023-02-25T17:03:43.943Z,9.18
2023-02-25T17:06:32.914Z,10.25
2023-02-25T17:09:30.834Z,14.38
2023-02-25T17:12:06.504Z,18.73
2023-02-25T17:14:40.411Z,20.17
2023-02-25T17:17:44.941Z,17.10
2023-02-25T17:20:27.705Z,13.90
2023-02-25T17:23:01.373Z,18.23
2023-02-25T17:25:53.490Z,21.20
2023-02-25T17:28:28.061Z,25.23
2023-02-25T17:31:10.547Z,15.43
2023-02-25T17:33:55.591Z,20.05
2023-02-25T17:36:30.269Z,18.45
2023-02-25T17:39:20.518Z,6.87
2023-02-25T17:41:52.149Z,12.37
2023-02-25T17:44:46.150Z,15.23
2023-02-25T17:47:24.427Z,20.77
2023-02-25T17:49:56.270Z,11.12
2023-02-25T17:52:33.300Z,14.82
2023-02-25T17:55:07.309Z,15.63
2023-02-25T17:57:44.394Z,12.70
2023-02-25T18:00:30.207Z,15.45
2023-02-25T18:03:19.694Z,18.33
2023-02-25T18:06:00.913Z,24.58
2023-02-25T18:08:33.045Z,23.00
2023-02-25T18:11:19.771Z,18.05
2023-02-25T18:13:54.041Z,19.48
2023-02-25T18:16:42.962Z,19.02
2023-02-25T18:19:35.079Z,17.58
2023-02-25T18:22:06.790Z,15.95
2023-02-25T18:24:40.624Z,9.05
2023-02-25T18:27:25.429Z,19.62
2023-02-25T18:30:00.668Z,16.10
2023-02-25T18:32:48.241Z,10.43
2023-02-25T18:35:19.700Z,17.87
2023-02-25T18:40:40.482Z,14.82
2023-02-25T18:43:21.004Z,16.75
2023-02-25T18:45:52.340Z,25.37
2023-02-25T18:48:24.116Z,10.05
2023-02-25T18:50:57.326Z,14.23
2023-02-25T18:53:28.222Z,10.45
2023-02-25T18:55:59.412Z,7.53
2023-02-25T18:58:30.513Z,15.68
2023-02-25T19:01:05.396Z,21.45
2023-02-25T19:03:42.379Z,11.27
2023-02-25T19:06:12.740Z,12.77
2023-02-25T19:08:42.248Z,16.00
2023-02-25T19:11:23.774Z,10.73
2023-02-25T19:13:53.896Z,13.60
2023-02-25T19:16:25.683Z,8.63
2023-02-25T19:18:55.618Z,9.98
2023-02-25T19:21:26.977Z,5.45
2023-02-25T19:23:56.632Z,15.90
2023-02-25T19:26:30.328Z,17.98
2023-02-25T19:29:01.988Z,8.98
2023-02-25T19:31:32.199Z,14.82
2023-02-25T19:34:04.270Z,13.18
2023-02-25T19:36:37.422Z,9.98
2023-02-25T19:39:07.425Z,10.65
2023-02-25T19:41:39.045Z,14.43
2023-02-25T19:44:10.866Z,14.82
2023-02-25T19:46:40.820Z,9.07
2023-02-25T19:49:10.112Z,10.07
2023-02-25T19:51:41.291Z,9.70
2023-02-25T19:54:11.906Z,11.43
2023-02-25T19:56:41.842Z,10.95
2023-02-25T19:59:12.866Z,11.23
2023-02-25T20:01:42.934Z,11.00
2023-02-25T20:04:21.646Z,7.20
2023-02-25T20:06:51.282Z,12.95
2023-02-25T20:09:22.369Z,7.10
2023-02-25T20:11:53.820Z,14.10
2023-02-25T20:14:24.659Z,12.68
2023-02-25T20:16:54.493Z,14.35
2023-02-25T20:19:28.569Z,22.05
2023-02-25T20:22:02.206Z,16.90
2023-02-25T20:24:32.686Z,13.48
2023-02-25T20:27:03.761Z,15.93
2023-02-25T20:29:33.844Z,10.13
2023-02-25T20:32:03.888Z,11.63
2023-02-25T20:34:36.889Z,12.40
2023-02-25T20:37:13.949Z,5.20
2023-02-25T20:39:50.424Z,5.15
2023-02-25T20:42:22.932Z,9.93
2023-02-25T20:47:25.099Z,11.75
2023-02-25T20:49:58.026Z,12.52
2023-02-25T20:52:30.040Z,13.88
2023-02-25T20:55:01.297Z,11.80
2023-02-25T20:57:32.533Z,11.00
2023-02-25T21:00:02.560Z,13.05
2023-02-25T21:02:36.177Z,7.53
2023-02-25T21:05:09.898Z,8.52
2023-02-25T21:07:40.659Z,17.25
2023-02-25T21:10:11.570Z,12.02
2023-02-25T21:12:41.385Z,6.50
2023-02-25T21:15:12.031Z,6.75
2023-02-25T21:17:41.181Z,14.77
2023-02-25T21:20:12.341Z,11.55
2023-02-25T21:22:41.833Z,8.02
2023-02-25T21:25:11.863Z,6.78
2023-02-25T21:27:41.274Z,9.05
2023-02-25T21:30:11.817Z,11.00
2023-02-25T21:32:41.350Z,9.43
2023-02-25T21:35:11.376Z,11.05
2023-02-25T21:37:40.503Z,9.93
2023-02-25T21:40:11.095Z,9.32
2023-02-25T21:42:40.841Z,6.78
2023-02-25T21:45:11.379Z,10.55
2023-02-25T21:47:40.705Z,10.15
2023-02-25T21:50:11.325Z,5.60
2023-02-25T21:52:41.205Z,7.65
2023-02-25T21:55:11.720Z,6.20
2023-02-25T21:57:41.567Z,12.60
2023-02-25T22:00:12.072Z,10.40
2023-02-25T22:02:43.637Z,7.65
2023-02-25T22:05:12.900Z,12.40
2023-02-25T22:07:42.797Z,9.70
2023-02-25T22:10:13.035Z,6.95
2023-02-25T22:12:50.288Z,13.25
2023-02-25T22:15:19.582Z,13.13
2023-02-25T22:17:49.242Z,15.63
2023-02-25T22:20:18.916Z,7.85
2023-02-25T22:22:49.698Z,11.45
2023-02-25T22:25:20.254Z,10.90
2023-02-25T22:27:50.227Z,8.27
2023-02-25T22:30:19.917Z,13.75
2023-02-25T22:32:50.010Z,7.12
2023-02-25T22:35:19.405Z,10.30
2023-02-25T22:37:49.688Z,8.18
2023-02-25T22:40:18.844Z,12.40
2023-02-25T22:42:49.838Z,11.60
2023-02-25T22:45:19.111Z,6.95
2023-02-25T22:47:48.596Z,9.75
2023-02-25T22:50:18.765Z,10.73
2023-02-25T22:52:49.009Z,9.35
2023-02-25T22:55:20.914Z,17.25
2023-02-25T22:57:50.307Z,8.25
2023-02-25T23:00:21.420Z,12.63
2023-02-25T23:02:50.870Z,5.62
2023-02-25T23:05:20.502Z,12.70
2023-02-25T23:07:51.338Z,10.95
2023-02-25T23:10:21.241Z,15.18
2023-02-25T23:12:50.992Z,12.23
2023-02-25T23:15:20.764Z,15.75
2023-02-25T23:17:49.925Z,11.95
2023-02-25T23:20:19.716Z,9.02
2023-02-25T23:22:51.780Z,12.25
2023-02-25T23:25:21.536Z,11.48
2023-02-25T23:27:52.036Z,9.70
2023-02-25T23:30:21.428Z,13.48
2023-02-25T23:32:51.346Z,13.93
2023-02-25T23:35:20.807Z,13.80
2023-02-25T23:37:50.760Z,16.02
2023-02-25T23:40:20.297Z,14.30
2023-02-25T23:42:49.540Z,8.85
2023-02-25T23:45:19.691Z,16.75
2023-02-25T23:47:49.615Z,17.20
2023-02-25T23:50:22.181Z,16.55
2023-02-25T23:52:51.440Z,15.23
2023-02-25T23:55:22.587Z,14.23
2023-02-25T23:57:52.528Z,19.55
